Time;durP1;ratioP1;P1;durP2;ratioP2;P2;SDS_P1;SDS_P2;PMS_P1;PMS_P2;Temp;Humidity;BMP_temperature;BMP_pressure;BME280_temperature;BME280_humidity;BME280_pressure;Samples;Min_cycle;Max_cycle;Signal;HPM_P1;HPM_P2
2022/12/16 00:01:55;;;;;;;4.30;3.90;;;17.50;51.50;;;;;;4992972;28;20236;-67
2022/12/16 00:04:21;;;;;;;4.63;4.22;;;17.50;51.50;;;;;;4992716;28;20217;-67
2022/12/16 00:06:46;;;;;;;4.05;3.75;;;17.50;51.50;;;;;;4992444;28;20181;-65
2022/12/16 00:09:12;;;;;;;5.07;4.53;;;17.50;51.50;;;;;;4995786;28;20279;-66
2022/12/16 00:11:38;;;;;;;4.53;4.13;;;17.50;51.50;;;;;;4995620;28;20246;-66
2022/12/16 00:14:04;;;;;;;4.55;4.13;;;17.50;51.60;;;;;;4979614;28;20287;-66
2022/12/16 00:16:30;;;;;;;4.53;4.13;;;17.50;51.60;;;;;;5011969;28;20192;-67
2022/12/16 00:18:56;;;;;;;4.43;3.90;;;17.50;51.50;;;;;;5011792;28;20184;-67
2022/12/16 00:21:27;;;;;;;4.72;4.30;;;17.50;51.50;;;;;;4995200;28;20219;-67
2022/12/16 00:23:53;;;;;;;4.63;4.22;;;17.50;51.50;;;;;;4994941;28;20224;-64
2022/12/16 00:26:19;;;;;;;4.85;4.45;;;17.50;51.50;;;;;;4996725;28;20560;-66
2022/12/16 00:28:44;;;;;;;4.65;4.25;;;17.50;51.60;;;;;;4995448;28;20181;-66
2022/12/16 00:31:11;;;;;;;4.78;4.38;;;17.50;51.60;;;;;;4979206;28;20208;-66
2022/12/16 00:33:37;;;;;;;4.82;4.40;;;17.50;51.60;;;;;;4995152;28;20197;-66
2022/12/16 00:36:03;;;;;;;4.85;4.03;;;17.50;51.50;;;;;;4995374;28;20192;-66
2022/12/16 00:38:29;;;;;;;4.38;3.97;;;17.50;51.50;;;;;;4995331;28;20267;-66
2022/12/16 00:40:54;;;;;;;5.45;4.95;;;17.50;51.60;;;;;;5011514;28;20285;-66
2022/12/16 00:43:20;;;;;;;5.30;4.80;;;17.50;51.50;;;;;;4994904;28;20209;-66
2022/12/16 00:45:47;;;;;;;5.45;4.95;;;17.50;51.50;;;;;;4978887;28;20261;-66
2022/12/16 00:48:13;;;;;;;5.65;4.47;;;17.50;52.20;;;;;;5011526;28;20192;-66
2022/12/16 00:50:39;;;;;;;4.50;4.20;;;17.50;51.60;;;;;;4996228;28;20184;-67
2022/12/16 00:53:06;;;;;;;4.90;4.50;;;17.50;51.60;;;;;;5009935;28;20177;-67
2022/12/16 00:55:32;;;;;;;4.63;4.22;;;17.50;51.60;;;;;;4995196;28;20236;-67
2022/12/16 00:57:58;;;;;;;4.68;4.28;;;17.50;51.60;;;;;;4995037;28;20211;-66
2022/12/16 01:00:24;;;;;;;4.78;4.30;;;17.50;51.60;;;;;;4994889;28;20185;-67
2022/12/16 01:02:50;;;;;;;4.97;4.57;;;17.50;51.60;;;;;;4994463;28;20317;-66
2022/12/16 01:05:20;;;;;;;5.10;4.60;;;17.50;51.60;;;;;;4994658;28;20240;-66
2022/12/16 01:07:47;;;;;;;4.97;4.53;;;17.50;51.60;;;;;;4994867;28;20185;-66
2022/12/16 01:10:13;;;;;;;4.95;4.55;;;17.50;51.70;;;;;;4978838;28;20185;-66
2022/12/16 01:12:39;;;;;;;4.97;4.53;;;17.50;51.60;;;;;;4978446;28;20661;-66
2022/12/16 01:15:07;;;;;;;5.05;4.57;;;17.50;51.60;;;;;;5010935;28;20234;-67
2022/12/16 01:17:34;;;;;;;4.78;4.38;;;17.50;51.60;;;;;;4977762;28;20192;-66
2022/12/16 01:20:00;;;;;;;5.05;4.65;;;17.50;51.60;;;;;;4995695;28;20193;-66
2022/12/16 01:22:32;;;;;;;5.10;4.70;;;17.50;51.60;;;;;;4994292;28;20214;-66
2022/12/16 01:24:59;;;;;;;5.53;5.00;;;17.50;51.60;;;;;;4995326;28;20291;-66
2022/12/16 01:27:25;;;;;;;5.10;4.65;;;17.50;51.60;;;;;;4994525;28;20192;-66
2022/12/16 01:29:51;;;;;;;5.07;4.68;;;17.50;51.60;;;;;;5011031;28;20200;-66
2022/12/16 01:32:17;;;;;;;5.20;4.80;;;17.50;51.60;;;;;;5010773;28;20197;-67
2022/12/16 01:34:43;;;;;;;5.28;4.78;;;17.50;51.60;;;;;;4978232;28;20193;-66
2022/12/16 01:37:12;;;;;;;5.40;4.75;;;17.50;51.60;;;;;;5010682;28;20189;-66
2022/12/16 01:39:38;;;;;;;5.28;4.88;;;17.50;51.60;;;;;;4994089;28;20197;-66
2022/12/16 01:42:11;;;;;;;6.20;5.60;;;17.50;51.60;;;;;;4994429;28;20209;-68
2022/12/16 01:44:37;;;;;;;5.15;4.65;;;17.50;51.60;;;;;;4993908;28;20282;-66
2022/12/16 01:47:05;;;;;;;5.38;4.93;;;17.50;51.60;;;;;;4994150;28;20203;-66
2022/12/16 01:49:47;;;;;;;6.22;5.63;;;17.50;51.60;;;;;;4994120;28;20182;-66
2022/12/16 01:52:20;;;;;;;5.32;4.82;;;17.50;51.60;;;;;;5010495;28;20228;-66
2022/12/16 01:55:02;;;;;;;5.25;4.85;;;17.50;51.70;;;;;;5010254;28;20181;-66
2022/12/16 01:57:47;;;;;;;5.55;5.07;;;17.50;51.60;;;;;;4993844;28;20188;-66
2022/12/16 02:00:13;;;;;;;5.72;5.22;;;17.50;51.60;;;;;;4993825;28;20196;-66
2022/12/16 02:02:44;;;;;;;5.30;4.85;;;17.50;51.60;;;;;;4993453;28;20217;-67
2022/12/16 02:05:20;;;;;;;5.72;5.15;;;17.50;51.60;;;;;;5009933;28;20687;-67
2022/12/16 02:08:06;;;;;;;5.82;5.22;;;17.50;51.60;;;;;;4993628;28;20195;-67
2022/12/16 02:11:06;;;;;;;5.57;5.07;;;17.50;51.60;;;;;;4993925;28;20196;-67
2022/12/16 02:13:59;;;;;;;5.32;4.82;;;17.50;51.60;;;;;;4975230;28;20203;-66
2022/12/16 02:17:15;;;;;;;5.18;4.68;;;17.50;51.70;;;;;;5009509;28;20197;-66
2022/12/16 02:19:57;;;;;;;5.35;4.85;;;17.50;51.70;;;;;;4993302;28;20189;-66
2022/12/16 02:23:00;;;;;;;5.68;5.18;;;17.50;51.70;;;;;;4994393;28;20212;-66
2022/12/16 02:26:18;;;;;;;5.45;4.80;;;17.50;51.70;;;;;;5009560;28;20207;-67
2022/12/16 02:29:04;;;;;;;5.28;4.88;;;17.50;51.70;;;;;;4993201;28;20197;-66
2022/12/16 02:31:49;;;;;;;5.13;4.72;;;17.50;51.70;;;;;;5009256;28;20212;-66
2022/12/16 02:34:58;;;;;;;6.15;5.45;;;17.50;51.70;;;;;;4993265;28;20302;-66
2022/12/16 02:37:51;;;;;;;5.82;5.32;;;17.50;51.80;;;;;;4993041;28;20656;-66
2022/12/16 02:40:34;;;;;;;5.35;4.88;;;17.50;51.70;;;;;;4992982;28;20184;-67
2022/12/16 02:43:19;;;;;;;5.30;4.80;;;17.50;51.70;;;;;;4992750;28;20200;-66
2022/12/16 02:45:46;;;;;;;5.38;4.88;;;17.50;51.80;;;;;;4993145;28;20188;-67
2022/12/16 02:48:12;;;;;;;5.60;5.07;;;17.50;51.80;;;;;;5009289;28;20189;-66
2022/12/16 02:50:48;;;;;;;4.53;4.13;;;17.50;51.80;;;;;;4992878;28;20612;-66
2022/12/16 02:53:14;;;;;;;4.60;4.15;;;17.50;51.80;;;;;;4994042;28;20227;-67
2022/12/16 02:56:20;;;;;;;4.70;4.30;;;17.50;51.80;;;;;;4992574;28;20183;-66
2022/12/16 02:59:06;;;;;;;4.97;4.57;;;17.50;51.80;;;;;;4976791;28;20268;-67
2022/12/16 03:01:56;;;;;;;5.45;4.95;;;17.50;51.80;;;;;;4993371;28;20220;-67
2022/12/16 03:05:02;;;;;;;4.70;4.30;;;17.50;51.70;;;;;;4992340;28;20216;-66
2022/12/16 03:07:32;;;;;;;4.78;4.38;;;17.50;51.70;;;;;;4910830;28;20200;-66
2022/12/16 03:10:01;;;;;;;4.88;4.47;;;17.50;51.70;;;;;;4992325;28;20168;-66
2022/12/16 03:12:27;;;;;;;4.80;4.40;;;17.50;51.80;;;;;;4976441;28;20205;-66
2022/12/16 03:14:54;;;;;;;4.38;3.97;;;17.50;51.70;;;;;;4991219;28;20660;-68
2022/12/16 03:17:23;;;;;;;4.32;3.92;;;17.50;51.80;;;;;;4986782;28;20192;-66
2022/12/16 03:20:04;;;;;;;4.20;3.80;;;17.50;51.70;;;;;;4992249;28;20260;-66
2022/12/16 03:22:35;;;;;;;4.43;4.03;;;17.50;51.80;;;;;;4993215;28;20235;-66
2022/12/16 03:25:01;;;;;;;4.38;3.97;;;17.50;51.80;;;;;;5008472;28;20205;-66
2022/12/16 03:27:55;;;;;;;4.57;4.18;;;17.50;51.80;;;;;;5008923;28;20556;-66
2022/12/16 03:30:41;;;;;;;4.60;4.20;;;17.50;51.80;;;;;;4992491;28;20637;-66
2022/12/16 03:33:26;;;;;;;4.65;4.25;;;17.50;51.80;;;;;;4993260;28;20173;-67
2022/12/16 03:36:25;;;;;;;4.18;3.80;;;17.50;51.80;;;;;;4992046;28;20189;-66
2022/12/16 03:38:53;;;;;;;4.38;3.97;;;17.50;51.90;;;;;;4991907;28;20676;-66
2022/12/16 03:41:22;;;;;;;4.10;3.70;;;17.60;51.90;;;;;;4992103;28;20200;-66
2022/12/16 03:43:49;;;;;;;4.03;3.70;;;17.50;51.80;;;;;;4991707;28;20209;-67
2022/12/16 03:46:16;;;;;;;4.05;3.65;;;17.50;51.90;;;;;;4992209;28;20180;-66
2022/12/16 03:48:48;;;;;;;4.30;4.00;;;17.60;52.00;;;;;;4991932;28;20268;-66
2022/12/16 03:51:14;;;;;;;4.30;4.00;;;17.50;51.80;;;;;;4993008;28;20205;-66
2022/12/16 03:53:41;;;;;;;4.45;4.05;;;17.50;51.80;;;;;;4975778;28;20184;-67
2022/12/16 03:56:07;;;;;;;4.35;3.95;;;17.50;51.80;;;;;;4975946;28;20190;-67
2022/12/16 03:58:34;;;;;;;4.18;3.80;;;17.50;51.80;;;;;;4991714;28;20251;-66
2022/12/16 04:03:37;;;;;;;4.40;4.00;;;17.50;51.80;;;;;;4970234;28;20697;-69
2022/12/16 04:06:03;;;;;;;4.10;3.78;;;17.50;51.80;;;;;;4972240;28;20189;-68
2022/12/16 04:08:29;;;;;;;4.25;3.95;;;17.50;51.80;;;;;;4956265;28;20192;-68
2022/12/16 04:25:22;;;;;;;4.57;4.18;;;17.50;51.80;;;;;;4954043;29;20203;-69
2022/12/16 04:27:48;;;;;;;4.95;4.50;;;17.60;51.90;;;;;;4952789;29;20193;-69
2022/12/16 04:30:18;;;;;;;4.53;4.13;;;17.50;51.80;;;;;;4953105;28;20281;-69
